Time;durP1;ratioP1;P1;durP2;ratioP2;P2;SDS_P1;SDS_P2;PMS_P1;PMS_P2;Temp;Humidity;BMP_temperature;BMP_pressure;BME280_temperature;BME280_humidity;BME280_pressure;Samples;Min_cycle;Max_cycle;Signal;HPM_P1;HPM_P2
2022/11/07 00:01:54;;;;;;;84.67;46.90;;;;;;;-141.97;93.40;47761.25;5072506;28;20160;-79
2022/11/07 00:04:20;;;;;;;72.33;39.70;;;;;;;-141.97;93.62;47718.97;5072366;28;20161;-79
2022/11/07 00:06:45;;;;;;;72.37;39.83;;;;;;;-141.97;93.73;47718.97;5054327;28;20192;-79
2022/11/07 00:09:11;;;;;;;72.60;39.60;;;;;;;-141.97;94.23;47761.25;5072465;28;20549;-79
2022/11/07 00:11:36;;;;;;;74.00;40.97;;;;;;;-141.97;95.16;47720.91;5072449;28;20248;-79
2022/11/07 00:14:01;;;;;;;75.40;40.50;;;;;;;-141.97;95.10;47761.25;5072717;28;20168;-79
2022/11/07 00:16:28;;;;;;;70.90;39.83;;;;;;;-141.97;94.86;47743.97;5072525;28;20609;-79
2022/11/07 00:18:53;;;;;;;76.93;40.30;;;;;;;-141.97;94.61;47782.41;5072276;28;20173;-79
2022/11/07 00:21:19;;;;;;;72.77;40.30;;;;;;;-141.97;94.64;47738.19;5072186;28;20653;-79
2022/11/07 00:23:44;;;;;;;77.77;41.40;;;;;;;-141.97;94.67;47765.09;5072092;28;20179;-80
2022/11/07 00:26:11;;;;;;;73.47;41.53;;;;;;;-141.97;94.34;47701.69;5072606;28;20224;-79
2022/11/07 00:28:39;;;;;;;73.50;41.07;;;;;;;-141.97;94.21;47738.19;5072471;28;20171;-78
2022/11/07 00:31:06;;;;;;;77.00;42.03;;;;;;;-141.97;94.78;47738.19;5074320;28;20223;-79
2022/11/07 00:33:31;;;;;;;77.63;40.20;;;;;;;-141.97;94.64;47740.13;5072950;28;20184;-78
2022/11/07 00:35:57;;;;;;;73.87;40.03;;;;;;;-141.97;94.34;47749.72;5074850;28;20249;-78
2022/11/07 00:38:22;;;;;;;78.23;40.13;;;;;;;-141.97;94.99;47717.06;5075210;28;20204;-77
2022/11/07 00:40:59;;;;;;;72.57;39.43;;;;;;;-141.97;94.65;47742.03;5072680;28;20175;-79
2022/11/07 00:43:25;;;;;;;69.20;39.40;;;;;;;-141.97;94.19;47759.34;5071579;28;20199;-79
2022/11/07 00:45:51;;;;;;;71.13;38.80;;;;;;;-141.97;94.24;47745.88;5074595;28;20280;-78
2022/11/07 00:48:17;;;;;;;70.73;38.67;;;;;;;-141.97;94.30;47738.19;5076929;28;20239;-79
2022/11/07 00:50:42;;;;;;;77.97;40.10;;;;;;;-141.97;94.33;47884.28;5076331;28;20222;-79
2022/11/07 00:53:08;;;;;;;76.77;38.13;;;;;;;-141.97;94.32;47786.25;5075874;28;20173;-79
2022/11/07 00:55:34;;;;;;;74.43;39.07;;;;;;;-141.97;94.85;47743.97;5075825;28;20613;-78
2022/11/07 00:57:59;;;;;;;75.33;39.90;;;;;;;-141.97;94.96;47728.59;5075474;28;20207;-78
2022/11/07 01:00:25;;;;;;;77.07;40.03;;;;;;;-141.97;95.04;47747.81;5075228;28;20175;-78
2022/11/07 01:05:09;;;;;;;73.53;40.30;;;;;;;-141.97;94.98;47722.81;5075570;28;20173;-78
2022/11/07 01:05:36;;;;;;;73.63;39.73;;;;;;;-141.97;95.02;47728.59;5075480;28;20188;-78
2022/11/07 01:08:02;;;;;;;74.03;39.67;;;;;;;-141.97;95.10;47757.41;5075381;28;20175;-78
2022/11/07 01:10:27;;;;;;;74.10;39.27;;;;;;;-141.97;94.77;47722.81;5057268;28;20169;-79
2022/11/07 01:12:53;;;;;;;77.03;39.90;;;;;;;-141.97;94.60;47738.19;5075401;28;20167;-79
2022/11/07 01:15:18;;;;;;;74.33;39.67;;;;;;;-141.97;94.21;47722.81;5075584;28;20167;-79
2022/11/07 01:17:43;;;;;;;78.77;40.13;;;;;;;-141.97;94.19;47745.88;5075189;28;20644;-78
2022/11/07 01:20:09;;;;;;;76.27;40.87;;;;;;;-141.97;94.24;47738.19;5075058;28;20165;-79
2022/11/07 01:22:35;;;;;;;73.77;39.87;;;;;;;-141.97;94.22;47742.03;5074929;28;20188;-77
2022/11/07 01:25:00;;;;;;;73.40;39.73;;;;;;;-141.97;93.88;47740.13;5074900;28;20555;-78
2022/11/07 01:27:26;;;;;;;74.47;39.20;;;;;;;-141.97;93.48;47738.19;5075054;28;20204;-78
2022/11/07 01:29:51;;;;;;;73.00;38.47;;;;;;;-141.97;93.62;47715.13;5075214;28;20625;-77
2022/11/07 01:32:17;;;;;;;71.13;38.70;;;;;;;-141.97;93.60;47768.94;5074813;28;20252;-78
2022/11/07 01:34:42;;;;;;;71.10;40.10;;;;;;;-141.97;93.34;47751.66;5074994;28;20764;-78
2022/11/07 01:37:08;;;;;;;72.43;39.80;;;;;;;-141.97;93.11;47813.16;5075145;28;20681;-78
2022/11/07 01:39:34;;;;;;;71.73;38.97;;;;;;;-141.97;93.49;47676.69;5074784;28;20171;-78
2022/11/07 01:41:59;;;;;;;72.47;39.40;;;;;;;-141.97;93.31;47736.28;5074406;28;20579;-77
2022/11/07 01:44:24;;;;;;;73.30;40.10;;;;;;;-141.97;93.38;47759.34;5074682;28;20272;-78
2022/11/07 01:46:53;;;;;;;77.07;41.60;;;;;;;-141.97;93.46;47788.19;5075033;28;20176;-78
2022/11/07 01:49:20;;;;;;;74.67;41.97;;;;;;;-141.97;94.18;47755.50;5074658;28;20188;-79
2022/11/07 01:51:51;;;;;;;77.50;41.00;;;;;;;-141.97;93.95;47742.03;5074564;28;20204;-79
2022/11/07 01:54:22;;;;;;;79.43;41.97;;;;;;;-141.97;93.88;47759.34;5074631;28;20179;-79
2022/11/07 01:56:48;;;;;;;79.43;41.60;;;;;;;-141.97;93.71;47720.91;5074435;28;20160;-79
2022/11/07 01:59:20;;;;;;;78.07;41.87;;;;;;;-141.97;93.75;47726.66;5074415;28;20218;-79
2022/11/07 02:01:45;;;;;;;78.57;42.77;;;;;;;-141.97;93.95;47784.34;5074257;28;20180;-78
2022/11/07 02:04:11;;;;;;;78.70;42.00;;;;;;;-141.97;93.72;47765.09;5074207;28;20617;-78
2022/11/07 02:06:51;;;;;;;79.70;42.33;;;;;;;-141.97;93.79;47759.34;5073773;28;20188;-78
2022/11/07 02:09:16;;;;;;;79.93;41.47;;;;;;;-141.97;93.66;47834.31;5074248;28;20152;-78
2022/11/07 02:11:42;;;;;;;80.23;43.90;;;;;;;-141.97;94.15;47776.63;5074380;28;20164;-78
2022/11/07 02:14:13;;;;;;;82.50;43.20;;;;;;;-141.97;94.25;47742.03;5074106;28;20661;-78
2022/11/07 02:16:39;;;;;;;85.33;43.13;;;;;;;-141.97;94.97;47757.41;5074002;28;20573;-78
2022/11/07 02:19:12;;;;;;;87.07;42.77;;;;;;;-141.97;96.35;47788.19;5073895;28;20644;-78
2022/11/07 02:22:00;;;;;;;80.27;42.37;;;;;;;-141.97;96.61;47745.88;5073503;28;20172;-78
2022/11/07 02:24:30;;;;;;;81.53;43.43;;;;;;;-141.97;96.89;47742.03;4992556;28;20225;-78
2022/11/07 02:26:57;;;;;;;81.10;42.40;;;;;;;-141.97;96.58;47751.66;4992674;28;20768;-78
2022/11/07 02:29:25;;;;;;;81.77;42.17;;;;;;;-141.97;96.63;47753.56;4992264;28;20187;-79
2022/11/07 02:32:04;;;;;;;82.20;43.43;;;;;;;-141.97;97.39;47745.88;4992731;28;20629;-78
2022/11/07 02:34:29;;;;;;;83.97;42.20;;;;;;;-141.97;97.53;47757.41;4992681;28;20195;-78
2022/11/07 02:36:56;;;;;;;84.37;42.87;;;;;;;-141.97;97.56;47738.19;4993673;28;20241;-78
2022/11/07 02:39:21;;;;;;;82.87;42.97;;;;;;;-141.97;97.21;47745.88;4974260;28;20168;-79
2022/11/07 02:41:47;;;;;;;77.00;42.00;;;;;;;-141.97;96.95;47734.34;4973011;28;20573;-79
2022/11/07 02:44:13;;;;;;;79.13;41.70;;;;;;;-141.97;97.26;47722.81;4972826;28;20216;-79
2022/11/07 02:46:39;;;;;;;79.57;41.73;;;;;;;-141.97;97.10;47765.09;4972601;28;20203;-79
2022/11/07 02:49:04;;;;;;;83.47;42.37;;;;;;;-141.97;97.41;47738.19;4972653;28;20199;-79
2022/11/07 02:51:30;;;;;;;79.87;41.73;;;;;;;-141.97;97.97;47745.88;4972728;28;20176;-79
2022/11/07 02:53:55;;;;;;;80.43;42.33;;;;;;;-141.97;98.24;47768.94;4972643;28;20195;-78
2022/11/07 02:56:21;;;;;;;80.90;41.97;;;;;;;-141.97;97.84;47761.25;4980718;28;20203;-78
2022/11/07 02:58:47;;;;;;;77.07;40.93;;;;;;;-141.97;97.78;47767.03;4991975;28;20186;-79
2022/11/07 03:01:12;;;;;;;75.77;41.33;;;;;;;-141.97;98.00;47788.19;5022450;28;20180;-79
2022/11/07 03:03:41;;;;;;;78.67;42.00;;;;;;;-141.97;97.91;47770.88;5073352;28;20161;-79
2022/11/07 03:06:08;;;;;;;76.30;39.93;;;;;;;-141.97;97.99;47767.03;5073450;28;20193;-78
2022/11/07 03:08:34;;;;;;;79.03;41.10;;;;;;;-141.97;97.96;47743.97;5054975;28;20192;-78
2022/11/07 03:11:00;;;;;;;75.67;39.83;;;;;;;-141.97;98.04;47795.88;5073702;28;20173;-78
2022/11/07 03:13:25;;;;;;;79.50;41.53;;;;;;;-141.97;98.30;47751.66;5073280;28;20639;-79
2022/11/07 03:15:51;;;;;;;79.60;42.03;;;;;;;-141.97;98.94;47778.56;5073003;28;20649;-79
2022/11/07 03:18:17;;;;;;;80.67;42.20;;;;;;;-141.97;99.06;47772.78;5073276;28;20594;-78
2022/11/07 03:20:42;;;;;;;79.50;42.07;;;;;;;-141.97;99.51;47768.94;5073290;28;20172;-79
2022/11/07 03:23:08;;;;;;;82.67;41.90;;;;;;;-141.97;99.41;47780.47;5073164;28;20169;-79
2022/11/07 03:25:33;;;;;;;79.27;41.67;;;;;;;-141.97;98.72;47792.03;5073200;28;20692;-78
2022/11/07 03:27:59;;;;;;;77.57;41.13;;;;;;;-141.97;99.28;47753.56;5070744;28;20188;-80
2022/11/07 03:30:24;;;;;;;79.13;41.83;;;;;;;-141.97;99.09;47772.78;5072632;28;20160;-79
2022/11/07 03:32:53;;;;;;;78.27;42.13;;;;;;;-141.97;99.37;47749.72;5072404;28;20559;-78
2022/11/07 03:35:19;;;;;;;74.13;42.03;;;;;;;-141.97;99.36;47792.03;5072546;28;20226;-78
2022/11/07 03:37:45;;;;;;;80.87;42.37;;;;;;;-141.97;99.53;47761.25;5072778;28;20255;-79
2022/11/07 03:40:11;;;;;;;82.57;41.77;;;;;;;-141.97;99.53;47788.19;5072584;28;20169;-79
2022/11/07 03:42:40;;;;;;;81.17;42.27;;;;;;;-141.97;99.73;47780.47;5072905;28;20169;-79
2022/11/07 03:45:07;;;;;;;79.80;41.07;;;;;;;-141.97;99.91;47776.63;5072972;28;20208;-79
2022/11/07 03:47:38;;;;;;;77.80;41.43;;;;;;;-141.97;100.00;47742.03;5072631;28;20173;-78
2022/11/07 03:50:04;;;;;;;81.63;41.00;;;;;;;-141.97;100.00;47753.56;5073185;28;20164;-78
2022/11/07 03:52:30;;;;;;;81.07;42.33;;;;;;;-141.97;100.00;47740.13;5076827;28;20259;-77
2022/11/07 03:54:55;;;;;;;82.97;41.70;;;;;;;-141.97;99.93;47753.56;5074129;28;20161;-79
2022/11/07 03:57:21;;;;;;;91.73;46.37;;;;;;;-141.97;99.24;47776.63;5072577;28;20193;-78
2022/11/07 03:59:46;;;;;;;95.70;50.80;;;;;;;-141.97;98.41;47784.34;5072593;28;20244;-79
2022/11/07 04:02:11;;;;;;;89.50;47.50;;;;;;;-141.97;97.52;47788.19;5072659;28;20168;-79
2022/11/07 04:04:37;;;;;;;94.07;47.60;;;;;;;-141.97;97.45;47788.19;5072486;28;20181;-78
2022/11/07 04:07:03;;;;;;;92.70;47.40;;;;;;;-141.97;97.36;47757.41;5072569;28;20592;-79
2022/11/07 04:09:28;;;;;;;87.93;47.80;;;;;;;-141.97;97.43;47770.88;5072508;28;20153;-78
2022/11/07 04:17:21;;;;;;;109.20;58.37;;;;;;;-141.97;96.01;47772.78;5072393;28;20168;-80
2022/11/07 04:19:49;;;;;;;114.70;60.93;;;;;;;-141.97;95.88;47730.50;5072988;28;20161;-79
2022/11/07 04:22:15;;;;;;;103.90;55.93;;;;;;;-141.97;95.56;47755.50;5075826;28;20196;-79
2022/11/07 04:24:41;;;;;;;118.53;61.83;;;;;;;-141.97;95.85;47790.09;5075921;28;20199;-78
2022/11/07 04:29:55;;;;;;;107.93;52.43;;;;;;;-141.97;95.94;47757.41;5076092;28;20229;-79
2022/11/07 04:32:22;;;;;;;97.40;50.93;;;;;;;-141.97;95.84;47776.63;5076179;28;20592;-78
2022/11/07 04:34:47;;;;;;;85.17;47.50;;;;;;;-141.97;96.13;47770.88;5076029;28;20235;-78
2022/11/07 04:37:13;;;;;;;98.00;50.73;;;;;;;-141.97;95.92;47745.88;5055218;28;20276;-79
2022/11/07 04:39:38;;;;;;;93.63;48.00;;;;;;;-141.97;95.69;47765.09;5072090;28;20180;-79
2022/11/07 04:42:04;;;;;;;81.40;42.67;;;;;;;-141.97;95.25;47768.94;5074229;28;20196;-78
2022/11/07 04:44:29;;;;;;;75.03;41.13;;;;;;;-141.97;95.45;47857.38;5060358;28;20189;-79
2022/11/07 04:46:54;;;;;;;79.53;43.87;;;;;;;-141.97;95.32;47745.88;5054707;28;20251;-79
2022/11/07 04:49:20;;;;;;;88.70;48.83;;;;;;;-141.97;95.41;47767.03;5054236;28;20216;-79
2022/11/07 04:51:45;;;;;;;72.03;41.10;;;;;;;-141.97;95.51;47749.72;5055043;28;20188;-78
2022/11/07 04:54:12;;;;;;;108.73;54.63;;;;;;;-141.97;94.63;47740.13;5071584;28;20189;-79
2022/11/07 04:56:38;;;;;;;94.80;49.90;;;;;;;-141.97;94.90;47763.19;5053089;28;20189;-79
2022/11/07 04:59:03;;;;;;;87.43;43.33;;;;;;;-141.97;95.58;47742.03;5052785;28;20180;-79
2022/11/07 05:01:28;;;;;;;80.67;42.17;;;;;;;-141.97;95.97;47759.34;5052533;28;20193;-78
2022/11/07 05:03:54;;;;;;;87.67;47.73;;;;;;;-141.97;96.14;47818.94;5055508;28;20616;-79
2022/11/07 05:06:19;;;;;;;83.23;45.57;;;;;;;-141.97;96.50;47772.78;5054536;28;20223;-79
2022/11/07 05:08:45;;;;;;;81.30;43.97;;;;;;;-141.97;96.89;47778.56;5035172;28;20192;-79
2022/11/07 05:11:10;;;;;;;84.27;42.77;;;;;;;-141.97;97.62;47767.03;5060873;28;20219;-78
2022/11/07 05:13:35;;;;;;;80.73;42.20;;;;;;;-141.97;97.46;47784.34;5073023;28;20238;-79
2022/11/07 05:16:01;;;;;;;86.53;44.17;;;;;;;-141.97;97.55;47740.13;5056927;28;20612;-79
2022/11/07 05:18:26;;;;;;;84.43;46.00;;;;;;;-141.97;97.48;47749.72;5052267;28;20183;-78
2022/11/07 05:20:51;;;;;;;86.60;45.47;;;;;;;-141.97;97.60;47757.41;5059049;28;20181;-79
2022/11/07 05:23:17;;;;;;;115.80;58.60;;;;;;;-141.97;97.31;47780.47;5072073;28;20728;-81
2022/11/07 05:25:48;;;;;;;109.07;56.90;;;;;;;-141.97;97.18;47695.91;5072240;28;20229;-79
2022/11/07 05:28:18;;;;;;;107.53;55.10;;;;;;;-141.97;97.05;47736.28;5072873;28;20184;-79
2022/11/07 05:30:44;;;;;;;104.53;53.47;;;;;;;-141.97;96.99;47745.88;5072612;28;20264;-79
2022/11/07 05:33:12;;;;;;;102.07;53.23;;;;;;;-141.97;96.98;47788.19;5071715;28;20184;-78
2022/11/07 05:35:37;;;;;;;98.47;51.30;;;;;;;-141.97;97.02;47715.13;5053564;28;20224;-80
2022/11/07 05:38:03;;;;;;;85.40;44.10;;;;;;;-141.97;98.08;47803.56;5062504;28;20228;-78
2022/11/07 05:40:30;;;;;;;83.33;42.20;;;;;;;-141.97;99.10;47745.88;5071883;28;20172;-79
2022/11/07 05:43:03;;;;;;;146.73;78.60;;;;;;;-141.97;100.00;47761.25;5071731;28;20680;-79
2022/11/07 05:45:30;;;;;;;106.30;53.00;;;;;;;-141.97;99.24;47776.63;5065191;28;20214;-79
2022/11/07 05:47:59;;;;;;;99.53;52.93;;;;;;;-141.97;99.30;47809.31;5072106;28;20192;-79
2022/11/07 05:50:26;;;;;;;87.13;48.23;;;;;;;-141.97;99.90;47722.81;5072114;28;20185;-79
2022/11/07 05:52:51;;;;;;;87.97;50.07;;;;;;;-141.97;100.00;47730.50;5068347;28;20216;-79
2022/11/07 05:55:17;;;;;;;93.23;50.53;;;;;;;-141.97;99.79;47751.66;5045802;28;20269;-80
2022/11/07 05:57:42;;;;;;;201.83;129.93;;;;;;;-141.97;98.78;47768.94;5048955;28;20180;-79
2022/11/07 06:00:08;;;;;;;245.77;142.40;;;;;;;-141.97;98.68;47784.34;5068498;28;20266;-80
2022/11/07 06:02:34;;;;;;;103.67;55.67;;;;;;;-141.97;97.62;47788.19;5069204;28;20196;-80
2022/11/07 06:04:59;;;;;;;113.73;63.27;;;;;;;-141.97;97.82;47763.19;5050682;28;20216;-79
2022/11/07 06:07:25;;;;;;;99.87;55.13;;;;;;;-141.97;97.49;47772.78;5069680;28;20261;-79
2022/11/07 06:09:51;;;;;;;94.50;51.20;;;;;;;-141.97;97.36;47738.19;5069424;28;20617;-80
2022/11/07 06:12:16;;;;;;;99.33;54.20;;;;;;;-141.97;96.72;47790.09;5070676;28;20557;-80
2022/11/07 06:14:41;;;;;;;120.50;63.33;;;;;;;-141.97;95.97;47753.56;5069242;28;20314;-80
2022/11/07 06:17:07;;;;;;;119.60;64.17;;;;;;;-141.97;95.19;47780.47;5069465;28;20295;-80
2022/11/07 06:19:32;;;;;;;101.17;53.23;;;;;;;-141.97;94.18;47815.09;5070036;28;20184;-80
2022/11/07 06:21:59;;;;;;;73.10;41.20;;;;;;;-141.97;94.99;47713.22;5068586;28;20240;-80
2022/11/07 06:24:25;;;;;;;73.77;39.57;;;;;;;-141.97;96.03;47801.63;5068921;28;20177;-80
2022/11/07 06:26:50;;;;;;;70.70;38.03;;;;;;;-141.97;96.82;47742.03;5069272;28;20208;-80
2022/11/07 06:29:16;;;;;;;70.47;39.53;;;;;;;-141.97;97.58;47747.81;5069357;28;20177;-80
2022/11/07 06:31:41;;;;;;;86.33;46.87;;;;;;;-141.97;97.13;47749.72;5069191;28;20181;-79
2022/11/07 06:34:07;;;;;;;104.43;61.37;;;;;;;-141.97;96.38;47755.50;5052736;28;20242;-80
2022/11/07 06:36:32;;;;;;;74.83;43.60;;;;;;;-141.97;94.90;47757.41;5058001;28;20973;-79
2022/11/07 06:38:57;;;;;;;69.83;38.67;;;;;;;-141.97;93.02;47761.25;5068299;28;20180;-78
2022/11/07 06:41:23;;;;;;;73.20;41.07;;;;;;;-141.97;92.42;47730.50;5068493;28;20176;-79
2022/11/07 06:43:51;;;;;;;82.80;46.40;;;;;;;-141.97;92.32;47807.41;5067045;28;20596;-78
2022/11/07 06:46:18;;;;;;;66.67;37.47;;;;;;;-141.97;92.24;47742.03;5053292;28;20312;-79
2022/11/07 06:48:44;;;;;;;113.93;57.93;;;;;;;-141.97;92.82;47790.09;5049775;28;20199;-79
2022/11/07 06:51:11;;;;;;;67.50;37.27;;;;;;;-141.97;92.43;47788.19;5052493;28;20236;-78
2022/11/07 06:53:37;;;;;;;63.83;37.03;;;;;;;-141.97;92.18;47717.06;5067561;28;20184;-78
2022/11/07 06:56:05;;;;;;;83.57;49.93;;;;;;;-141.97;91.63;47751.66;5068611;28;20181;-78
2022/11/07 06:58:30;;;;;;;75.80;43.83;;;;;;;-141.97;92.18;47768.94;5068759;28;20605;-78
2022/11/07 07:01:04;;;;;;;62.80;37.57;;;;;;;-141.97;91.26;47755.50;5066998;28;20262;-78
2022/11/07 07:03:29;;;;;;;59.53;35.03;;;;;;;-141.97;89.70;47722.81;5067132;28;20192;-77
2022/11/07 07:06:00;;;;;;;50.17;30.77;;;;;;;-141.97;89.45;47780.47;5068046;28;20204;-79
2022/11/07 07:08:25;;;;;;;49.53;29.83;;;;;;;-141.97;91.03;47772.78;5067690;28;20184;-77
2022/11/07 07:10:50;;;;;;;52.23;30.77;;;;;;;-141.97;91.68;47768.94;5068678;28;20183;-78
2022/11/07 07:13:16;;;;;;;53.07;31.97;;;;;;;-141.97;91.38;47732.44;5067170;28;20314;-79
2022/11/07 07:15:41;;;;;;;55.53;33.03;;;;;;;-141.97;91.06;47724.75;5067344;28;20180;-79
2022/11/07 07:18:06;;;;;;;60.67;37.47;;;;;;;-141.97;90.78;47765.09;5068601;28;20657;-78
2022/11/07 07:20:32;;;;;;;68.93;41.33;;;;;;;-141.97;90.78;47742.03;5067515;28;20177;-79
2022/11/07 07:22:57;;;;;;;73.00;43.60;;;;;;;-141.97;90.64;47757.41;5061712;28;20185;-79
2022/11/07 07:25:23;;;;;;;74.00;44.27;;;;;;;-141.97;90.25;47768.94;5048842;28;21003;-79
2022/11/07 07:27:49;;;;;;;73.63;43.00;;;;;;;-141.97;89.59;47747.81;5049237;28;20677;-76
2022/11/07 07:30:16;;;;;;;90.73;52.50;;;;;;;-141.97;89.59;47747.81;5031171;28;20276;-79
2022/11/07 07:32:41;;;;;;;117.23;65.03;;;;;;;-141.97;90.14;47765.09;5048738;28;20522;-78
2022/11/07 07:35:08;;;;;;;84.73;47.50;;;;;;;-141.97;88.78;47763.19;5047455;28;20236;-77
2022/11/07 07:37:33;;;;;;;96.57;55.93;;;;;;;-141.97;87.68;47726.66;5038512;28;20232;-78
2022/11/07 07:39:59;;;;;;;87.17;49.77;;;;;;;-141.97;86.29;47720.91;5048079;28;20177;-79
2022/11/07 07:42:24;;;;;;;80.67;46.77;;;;;;;-141.97;87.79;47765.09;5048669;28;20179;-80
2022/11/07 07:44:49;;;;;;;78.80;46.60;;;;;;;-141.97;87.04;47784.34;5062329;28;20192;-78
2022/11/07 07:47:15;;;;;;;94.10;52.03;;;;;;;-141.97;83.15;47782.41;5047763;28;20274;-78
2022/11/07 07:49:40;;;;;;;84.43;47.20;;;;;;;-141.97;80.96;47734.34;5049132;28;20192;-78
2022/11/07 07:52:06;;;;;;;92.53;55.73;;;;;;;-141.97;79.37;47730.50;5048147;28;20185;-78
2022/11/07 07:54:31;;;;;;;88.47;54.77;;;;;;;-141.97;76.92;47749.72;5049565;28;20219;-78
2022/11/07 07:56:56;;;;;;;82.07;50.07;;;;;;;-141.97;75.79;47724.75;5053178;28;20279;-79
2022/11/07 07:59:22;;;;;;;76.40;45.93;;;;;;;-141.97;74.14;47676.69;5052811;28;20192;-79
2022/11/07 08:01:47;;;;;;;62.07;35.53;;;;;;;-141.97;72.98;47711.28;5034901;28;20192;-77
2022/11/07 08:04:13;;;;;;;59.43;33.33;;;;;;;-141.97;72.75;47730.50;5048576;28;20229;-79
2022/11/07 08:06:38;;;;;;;57.03;31.93;;;;;;;-141.97;71.48;47755.50;5055159;28;20228;-78
2022/11/07 08:09:04;;;;;;;56.27;32.77;;;;;;;-141.97;70.13;47753.56;5051539;28;20189;-79
2022/11/07 08:11:29;;;;;;;53.50;31.63;;;;;;;-141.97;69.36;47722.81;5052345;28;20814;-78
2022/11/07 08:13:55;;;;;;;54.83;32.10;;;;;;;-141.97;68.74;47713.22;5053467;28;20199;-78
2022/11/07 08:16:20;;;;;;;52.97;30.40;;;;;;;-141.97;67.82;47803.56;5055820;28;20277;-78
2022/11/07 08:18:46;;;;;;;49.63;29.87;;;;;;;-141.97;67.63;47818.94;5054112;28;20207;-79
2022/11/07 08:21:12;;;;;;;47.07;26.70;;;;;;;-141.97;65.76;47753.56;5070858;28;20192;-79
2022/11/07 08:23:37;;;;;;;47.53;23.67;;;;;;;-141.97;64.80;47792.03;5071922;28;20595;-77
2022/11/07 08:26:03;;;;;;;31.00;18.07;;;;;;;-141.97;64.43;47742.03;5071380;28;20204;-79
2022/11/07 08:28:32;;;;;;;38.47;20.60;;;;;;;-141.97;63.71;47665.16;5071811;28;20181;-78
2022/11/07 08:31:08;;;;;;;32.57;16.93;;;;;;;-141.97;62.17;47688.22;5072651;28;20216;-77
2022/11/07 08:33:34;;;;;;;23.83;12.43;;;;;;;-141.97;61.13;47755.50;5052316;28;20304;-79
2022/11/07 08:36:01;;;;;;;25.80;12.33;;;;;;;-141.97;61.03;47713.22;5050701;28;20240;-77
2022/11/07 08:38:28;;;;;;;18.23;9.10;;;;;;;-141.97;59.98;47715.13;5042397;28;20579;-79
2022/11/07 08:40:54;;;;;;;17.70;9.07;;;;;;;-141.97;59.39;47732.44;5052018;28;20181;-79
2022/11/07 08:43:19;;;;;;;16.30;8.67;;;;;;;-141.97;58.47;47734.34;5051405;28;20181;-78
2022/11/07 08:45:49;;;;;;;15.97;8.07;;;;;;;-141.97;58.28;47707.44;5050671;28;20204;-80
2022/11/07 08:48:15;;;;;;;15.47;8.03;;;;;;;-141.97;58.61;47703.59;5053597;28;20181;-78
2022/11/07 08:50:41;;;;;;;16.00;8.73;;;;;;;-141.97;58.02;47709.38;5053496;28;20724;-79
2022/11/07 08:53:08;;;;;;;14.17;8.50;;;;;;;-141.97;58.18;47703.59;5055808;28;20185;-79
2022/11/07 08:55:33;;;;;;;14.83;8.23;;;;;;;-141.97;59.08;47761.25;5055576;28;20264;-79
2022/11/07 08:58:00;;;;;;;18.10;8.97;;;;;;;-141.97;59.33;47740.13;5053371;28;20176;-79
2022/11/07 09:00:26;;;;;;;21.70;8.73;;;;;;;-141.97;58.77;47703.59;5053264;28;20181;-79
2022/11/07 09:02:52;;;;;;;15.07;8.40;;;;;;;-141.97;58.90;47678.63;5053356;28;20268;-79
2022/11/07 09:05:17;;;;;;;14.93;8.00;;;;;;;-141.97;59.13;47768.94;5052002;28;20216;-79
2022/11/07 09:07:43;;;;;;;16.90;8.57;;;;;;;-141.97;59.21;47718.97;5068633;28;20188;-80
2022/11/07 09:10:10;;;;;;;18.53;9.57;;;;;;;-141.97;59.02;47695.91;5073485;28;20176;-79
2022/11/07 09:12:42;;;;;;;15.30;8.53;;;;;;;-141.97;57.56;47701.69;5073165;28;20180;-78
2022/11/07 09:15:08;;;;;;;16.77;8.80;;;;;;;-141.97;57.20;47895.81;5071894;28;20656;-79
2022/11/07 09:17:33;;;;;;;15.70;8.10;;;;;;;-141.97;56.94;47713.22;5052854;28;20260;-79
2022/11/07 09:19:59;;;;;;;13.50;9.00;;;;;;;-141.97;55.79;47661.31;5053009;28;20665;-78
2022/11/07 09:22:24;;;;;;;14.03;8.07;;;;;;;-141.97;56.03;47717.06;5052465;28;20212;-78
2022/11/07 09:24:49;;;;;;;14.90;8.03;;;;;;;-141.97;55.59;47843.91;5052511;28;20646;-78
2022/11/07 09:27:15;;;;;;;15.77;8.47;;;;;;;-141.97;56.05;47657.47;5052151;28;20190;-78
2022/11/07 09:29:40;;;;;;;14.90;8.67;;;;;;;-141.97;55.52;47711.28;5051908;28;20303;-78
2022/11/07 09:32:05;;;;;;;14.30;8.67;;;;;;;-141.97;55.62;47713.22;5058203;28;20183;-80
2022/11/07 09:34:31;;;;;;;19.03;9.40;;;;;;;-141.97;55.79;47688.22;5072583;28;20217;-77
2022/11/07 09:36:56;;;;;;;17.57;9.23;;;;;;;-141.97;54.19;47703.59;5047702;28;20184;-78
2022/11/07 09:39:22;;;;;;;15.97;8.83;;;;;;;-141.97;53.41;47684.38;5051998;28;20216;-77
2022/11/07 09:41:48;;;;;;;17.87;9.90;;;;;;;-141.97;53.75;47676.69;5052545;28;20192;-78
2022/11/07 09:44:29;;;;;;;16.07;8.73;;;;;;;-141.97;52.63;47765.09;5052212;28;20228;-79
2022/11/07 09:47:04;;;;;;;15.67;8.93;;;;;;;-141.97;52.88;47703.59;5051429;28;20760;-80
2022/11/07 09:49:36;;;;;;;18.17;9.77;;;;;;;-141.97;53.97;47699.75;5071395;28;20651;-79
2022/11/07 09:52:13;;;;;;;17.73;9.30;;;;;;;-141.97;53.52;47699.75;5072527;28;20185;-79
2022/11/07 09:54:44;;;;;;;20.43;9.43;;;;;;;-141.97;53.22;47692.06;5072174;28;20199;-79
2022/11/07 09:57:15;;;;;;;17.50;9.67;;;;;;;-141.97;52.47;47680.53;5071724;28;20204;-79
2022/11/07 09:59:47;;;;;;;18.97;10.93;;;;;;;-141.97;51.87;47718.97;5071210;28;20257;-79
2022/11/07 10:02:16;;;;;;;19.63;10.67;;;;;;;-141.97;51.93;47893.91;5071762;28;20614;-79
2022/11/07 10:04:43;;;;;;;18.83;10.73;;;;;;;-141.97;51.74;47701.69;5071529;28;20180;-79
2022/11/07 10:07:32;;;;;;;18.97;10.70;;;;;;;-141.97;51.26;47709.38;5056198;28;20275;-79
2022/11/07 10:10:25;;;;;;;18.33;10.70;;;;;;;-141.97;51.97;47682.47;5051311;28;20184;-79
2022/11/07 10:12:56;;;;;;;16.90;10.63;;;;;;;-141.97;51.10;47688.22;5051858;28;20185;-79
2022/11/07 10:15:39;;;;;;;20.33;11.20;;;;;;;-141.97;50.87;47634.41;5052018;28;20185;-80
2022/11/07 10:18:23;;;;;;;23.33;11.50;;;;;;;-141.97;50.84;47709.38;5051200;28;20189;-78
2022/11/07 10:20:57;;;;;;;17.40;10.40;;;;;;;-141.97;50.20;47707.44;5051385;28;20181;-79
2022/11/07 10:23:50;;;;;;;18.53;10.87;;;;;;;-141.97;49.78;47690.16;5051802;28;20183;-79
2022/11/07 10:26:20;;;;;;;19.67;11.10;;;;;;;-141.97;49.64;47718.97;5052689;28;20200;-78
2022/11/07 10:28:55;;;;;;;20.50;11.30;;;;;;;-141.97;48.70;47672.84;5052032;28;20256;-79
2022/11/07 10:31:20;;;;;;;20.70;11.30;;;;;;;-141.97;49.47;47680.53;5052578;28;20246;-78
2022/11/07 10:34:24;;;;;;;20.97;11.47;;;;;;;-141.97;50.17;47694.00;5051941;28;20193;-79
2022/11/07 10:36:50;;;;;;;19.53;11.80;;;;;;;-141.97;49.08;47699.75;4969998;28;20249;-79
2022/11/07 10:39:17;;;;;;;17.83;11.23;;;;;;;-141.97;48.94;47642.09;4966398;28;20246;-79
2022/11/07 10:41:51;;;;;;;19.60;12.30;;;;;;;-141.97;49.45;47692.06;4989368;28;20203;-79
2022/11/07 10:44:25;;;;;;;26.97;13.20;;;;;;;-141.97;49.31;47697.84;4969920;28;20318;-79
2022/11/07 10:46:51;;;;;;;22.27;12.53;;;;;;;-141.97;48.90;47695.91;4969812;28;20302;-80
2022/11/07 10:49:24;;;;;;;23.43;12.87;;;;;;;-141.97;48.29;47720.91;4975135;28;20322;-79
2022/11/07 10:51:50;;;;;;;21.83;12.37;;;;;;;-141.97;49.06;47632.47;4989734;28;20191;-79
2022/11/07 10:54:24;;;;;;;21.37;12.57;;;;;;;-141.97;48.21;47699.75;4991156;28;20322;-79
2022/11/07 10:56:55;;;;;;;21.50;12.50;;;;;;;-141.97;48.38;47655.53;4996404;28;20983;-79
2022/11/07 10:59:26;;;;;;;20.63;13.00;;;;;;;-141.97;48.84;47680.53;4991119;28;20223;-79
2022/11/07 11:01:53;;;;;;;23.57;12.17;;;;;;;-141.97;48.48;47659.38;4989194;28;20277;-79
2022/11/07 11:04:30;;;;;;;18.77;12.30;;;;;;;-141.97;48.18;47686.31;4991043;28;20198;-78
2022/11/07 11:07:00;;;;;;;19.90;12.10;;;;;;;-141.97;47.92;47686.31;4989401;28;20242;-79
2022/11/07 11:09:30;;;;;;;23.13;12.43;;;;;;;-141.97;47.55;47684.38;4989145;28;20258;-80
2022/11/07 11:11:55;;;;;;;25.67;14.20;;;;;;;-141.97;48.03;47638.25;4989474;28;20187;-80